sensor_id;sensor_type;location;lat;lon;timestamp;P1;durP1;ratioP1;P2;durP2;ratioP2
11699;SDS011;5906;51.660;6.674;2023-06-26T00:00:12;14.33;;;11.00;;
11699;SDS011;5906;51.660;6.674;2023-06-26T00:02:39;11.60;;;10.30;;
11699;SDS011;5906;51.660;6.674;2023-06-26T00:05:06;12.80;;;10.13;;
11699;SDS011;5906;51.660;6.674;2023-06-26T00:07:33;15.50;;;11.20;;
11699;SDS011;5906;51.660;6.674;2023-06-26T00:10:02;15.43;;;9.63;;
11699;SDS011;5906;51.660;6.674;2023-06-26T00:12:30;15.20;;;11.40;;
11699;SDS011;5906;51.660;6.674;2023-06-26T00:14:58;14.30;;;11.00;;
11699;SDS011;5906;51.660;6.674;2023-06-26T00:17:25;14.13;;;11.23;;
11699;SDS011;5906;51.660;6.674;2023-06-26T00:19:53;13.67;;;10.80;;
11699;SDS011;5906;51.660;6.674;2023-06-26T00:22:21;14.30;;;11.30;;
11699;SDS011;5906;51.660;6.674;2023-06-26T00:24:48;16.13;;;11.57;;
11699;SDS011;5906;51.660;6.674;2023-06-26T00:27:15;17.03;;;10.97;;
11699;SDS011;5906;51.660;6.674;2023-06-26T00:29:42;16.00;;;11.40;;
11699;SDS011;5906;51.660;6.674;2023-06-26T00:32:09;16.00;;;11.10;;
11699;SDS011;5906;51.660;6.674;2023-06-26T00:34:36;14.83;;;10.00;;
11699;SDS011;5906;51.660;6.674;2023-06-26T00:37:03;13.80;;;10.83;;
11699;SDS011;5906;51.660;6.674;2023-06-26T00:39:30;12.30;;;10.03;;
11699;SDS011;5906;51.660;6.674;2023-06-26T00:41:57;17.27;;;11.47;;
11699;SDS011;5906;51.660;6.674;2023-06-26T00:44:25;13.37;;;10.27;;
11699;SDS011;5906;51.660;6.674;2023-06-26T00:46:52;13.17;;;10.73;;
11699;SDS011;5906;51.660;6.674;2023-06-26T00:49:20;14.30;;;10.73;;
11699;SDS011;5906;51.660;6.674;2023-06-26T00:51:47;16.10;;;10.80;;
11699;SDS011;5906;51.660;6.674;2023-06-26T00:54:15;17.57;;;10.77;;
11699;SDS011;5906;51.660;6.674;2023-06-26T00:56:46;13.70;;;10.40;;
11699;SDS011;5906;51.660;6.674;2023-06-26T00:59:14;14.90;;;10.97;;
11699;SDS011;5906;51.660;6.674;2023-06-26T01:01:41;13.17;;;10.93;;
11699;SDS011;5906;51.660;6.674;2023-06-26T01:04:08;13.80;;;10.43;;
11699;SDS011;5906;51.660;6.674;2023-06-26T01:06:47;15.23;;;11.00;;
11699;SDS011;5906;51.660;6.674;2023-06-26T01:09:17;16.93;;;9.80;;
11699;SDS011;5906;51.660;6.674;2023-06-26T01:11:45;13.50;;;9.97;;
11699;SDS011;5906;51.660;6.674;2023-06-26T01:14:13;17.80;;;11.00;;
11699;SDS011;5906;51.660;6.674;2023-06-26T01:16:41;15.30;;;11.40;;
11699;SDS011;5906;51.660;6.674;2023-06-26T01:19:18;16.50;;;11.63;;
11699;SDS011;5906;51.660;6.674;2023-06-26T01:22:16;15.60;;;11.13;;
11699;SDS011;5906;51.660;6.674;2023-06-26T01:25:03;14.60;;;11.00;;
11699;SDS011;5906;51.660;6.674;2023-06-26T01:27:48;15.10;;;11.00;;
11699;SDS011;5906;51.660;6.674;2023-06-26T01:30:17;15.40;;;10.87;;
11699;SDS011;5906;51.660;6.674;2023-06-26T01:32:46;14.00;;;11.40;;
11699;SDS011;5906;51.660;6.674;2023-06-26T01:35:14;19.80;;;11.20;;
11699;SDS011;5906;51.660;6.674;2023-06-26T01:37:42;14.43;;;10.90;;
11699;SDS011;5906;51.660;6.674;2023-06-26T01:40:09;17.10;;;11.27;;
11699;SDS011;5906;51.660;6.674;2023-06-26T01:42:36;14.30;;;10.90;;
11699;SDS011;5906;51.660;6.674;2023-06-26T01:45:10;20.40;;;11.10;;
11699;SDS011;5906;51.660;6.674;2023-06-26T01:47:55;14.27;;;10.93;;
11699;SDS011;5906;51.660;6.674;2023-06-26T01:50:26;15.20;;;10.47;;
11699;SDS011;5906;51.660;6.674;2023-06-26T01:58:02;16.50;;;11.20;;
11699;SDS011;5906;51.660;6.674;2023-06-26T02:00:30;22.80;;;10.50;;
11699;SDS011;5906;51.660;6.674;2023-06-26T02:02:58;17.00;;;10.40;;
11699;SDS011;5906;51.660;6.674;2023-06-26T02:05:25;19.23;;;10.57;;
11699;SDS011;5906;51.660;6.674;2023-06-26T02:08:10;13.80;;;10.23;;
11699;SDS011;5906;51.660;6.674;2023-06-26T02:10:40;14.20;;;10.33;;
11699;SDS011;5906;51.660;6.674;2023-06-26T02:13:08;14.87;;;10.40;;
11699;SDS011;5906;51.660;6.674;2023-06-26T02:15:35;12.90;;;10.77;;
11699;SDS011;5906;51.660;6.674;2023-06-26T02:18:02;16.53;;;10.77;;
11699;SDS011;5906;51.660;6.674;2023-06-26T02:20:29;14.20;;;10.90;;
11699;SDS011;5906;51.660;6.674;2023-06-26T02:22:56;14.00;;;10.57;;
11699;SDS011;5906;51.660;6.674;2023-06-26T02:25:23;14.20;;;10.40;;
11699;SDS011;5906;51.660;6.674;2023-06-26T02:27:50;18.33;;;9.77;;
11699;SDS011;5906;51.660;6.674;2023-06-26T02:30:17;23.50;;;10.07;;
11699;SDS011;5906;51.660;6.674;2023-06-26T02:32:44;13.43;;;10.60;;
11699;SDS011;5906;51.660;6.674;2023-06-26T02:35:11;19.13;;;10.70;;
11699;SDS011;5906;51.660;6.674;2023-06-26T02:37:38;16.40;;;9.63;;
11699;SDS011;5906;51.660;6.674;2023-06-26T02:40:05;14.87;;;10.77;;
11699;SDS011;5906;51.660;6.674;2023-06-26T02:42:34;13.90;;;10.17;;
11699;SDS011;5906;51.660;6.674;2023-06-26T02:45:02;13.23;;;9.30;;
11699;SDS011;5906;51.660;6.674;2023-06-26T02:47:29;15.90;;;9.23;;
11699;SDS011;5906;51.660;6.674;2023-06-26T02:50:09;14.70;;;11.00;;
11699;SDS011;5906;51.660;6.674;2023-06-26T02:52:36;19.10;;;11.13;;
11699;SDS011;5906;51.660;6.674;2023-06-26T02:55:04;15.47;;;9.37;;
11699;SDS011;5906;51.660;6.674;2023-06-26T02:57:31;14.53;;;10.20;;
11699;SDS011;5906;51.660;6.674;2023-06-26T02:59:58;14.20;;;9.90;;
11699;SDS011;5906;51.660;6.674;2023-06-26T03:02:25;14.43;;;10.43;;
11699;SDS011;5906;51.660;6.674;2023-06-26T03:04:53;13.03;;;10.07;;
11699;SDS011;5906;51.660;6.674;2023-06-26T03:07:20;14.07;;;10.93;;
11699;SDS011;5906;51.660;6.674;2023-06-26T03:09:47;16.50;;;10.50;;
11699;SDS011;5906;51.660;6.674;2023-06-26T03:12:14;13.70;;;10.80;;
11699;SDS011;5906;51.660;6.674;2023-06-26T03:14:41;17.43;;;10.33;;
11699;SDS011;5906;51.660;6.674;2023-06-26T03:17:09;17.20;;;10.30;;
11699;SDS011;5906;51.660;6.674;2023-06-26T03:19:36;11.90;;;9.90;;
11699;SDS011;5906;51.660;6.674;2023-06-26T03:22:03;14.43;;;10.53;;
11699;SDS011;5906;51.660;6.674;2023-06-26T03:24:31;13.90;;;10.57;;
11699;SDS011;5906;51.660;6.674;2023-06-26T03:26:58;16.37;;;12.37;;
11699;SDS011;5906;51.660;6.674;2023-06-26T03:29:25;17.33;;;13.70;;
11699;SDS011;5906;51.660;6.674;2023-06-26T03:31:52;16.70;;;11.13;;
11699;SDS011;5906;51.660;6.674;2023-06-26T03:34:19;14.47;;;10.30;;
11699;SDS011;5906;51.660;6.674;2023-06-26T03:36:46;18.77;;;11.63;;
11699;SDS011;5906;51.660;6.674;2023-06-26T03:39:13;13.77;;;10.43;;
11699;SDS011;5906;51.660;6.674;2023-06-26T03:41:40;14.23;;;10.83;;
11699;SDS011;5906;51.660;6.674;2023-06-26T03:44:07;13.60;;;10.47;;
11699;SDS011;5906;51.660;6.674;2023-06-26T03:46:34;14.80;;;10.87;;
11699;SDS011;5906;51.660;6.674;2023-06-26T03:49:01;13.10;;;9.80;;
11699;SDS011;5906;51.660;6.674;2023-06-26T03:51:28;17.73;;;10.03;;
11699;SDS011;5906;51.660;6.674;2023-06-26T03:53:55;14.87;;;10.50;;
11699;SDS011;5906;51.660;6.674;2023-06-26T03:56:22;21.00;;;11.63;;
11699;SDS011;5906;51.660;6.674;2023-06-26T03:58:49;19.40;;;12.43;;
11699;SDS011;5906;51.660;6.674;2023-06-26T04:01:16;21.47;;;12.97;;
11699;SDS011;5906;51.660;6.674;2023-06-26T04:03:43;17.70;;;12.07;;
11699;SDS011;5906;51.660;6.674;2023-06-26T04:06:10;14.90;;;11.63;;
11699;SDS011;5906;51.660;6.674;2023-06-26T04:08:37;17.30;;;11.20;;
11699;SDS011;5906;51.660;6.674;2023-06-26T04:11:04;18.67;;;12.83;;
11699;SDS011;5906;51.660;6.674;2023-06-26T04:13:31;21.70;;;12.60;;
11699;SDS011;5906;51.660;6.674;2023-06-26T04:15:58;19.80;;;12.80;;
11699;SDS011;5906;51.660;6.674;2023-06-26T04:18:25;14.77;;;11.63;;
11699;SDS011;5906;51.660;6.674;2023-06-26T04:23:36;17.43;;;11.77;;
11699;SDS011;5906;51.660;6.674;2023-06-26T04:26:04;16.33;;;11.20;;
11699;SDS011;5906;51.660;6.674;2023-06-26T04:28:32;16.87;;;10.97;;
11699;SDS011;5906;51.660;6.674;2023-06-26T04:31:03;14.30;;;10.70;;
11699;SDS011;5906;51.660;6.674;2023-06-26T04:33:30;13.93;;;9.90;;
11699;SDS011;5906;51.660;6.674;2023-06-26T04:35:57;19.17;;;10.33;;
11699;SDS011;5906;51.660;6.674;2023-06-26T04:38:26;13.37;;;10.00;;
11699;SDS011;5906;51.660;6.674;2023-06-26T04:40:53;19.70;;;9.60;;
11699;SDS011;5906;51.660;6.674;2023-06-26T04:43:20;14.90;;;8.37;;
11699;SDS011;5906;51.660;6.674;2023-06-26T04:45:47;10.40;;;8.20;;
11699;SDS011;5906;51.660;6.674;2023-06-26T04:48:14;16.93;;;9.07;;
11699;SDS011;5906;51.660;6.674;2023-06-26T04:50:41;14.00;;;8.30;;
11699;SDS011;5906;51.660;6.674;2023-06-26T04:53:08;12.83;;;7.87;;
11699;SDS011;5906;51.660;6.674;2023-06-26T04:55:35;11.97;;;7.97;;
11699;SDS011;5906;51.660;6.674;2023-06-26T04:58:05;10.60;;;7.90;;
11699;SDS011;5906;51.660;6.674;2023-06-26T05:00:32;13.40;;;7.70;;
11699;SDS011;5906;51.660;6.674;2023-06-26T05:03:02;15.20;;;8.67;;
11699;SDS011;5906;51.660;6.674;2023-06-26T05:05:29;16.17;;;7.90;;
11699;SDS011;5906;51.660;6.674;2023-06-26T05:07:56;14.73;;;7.33;;
11699;SDS011;5906;51.660;6.674;2023-06-26T05:10:24;12.63;;;6.67;;
11699;SDS011;5906;51.660;6.674;2023-06-26T05:12:51;9.00;;;6.70;;
11699;SDS011;5906;51.660;6.674;2023-06-26T05:15:18;11.93;;;7.17;;
11699;SDS011;5906;51.660;6.674;2023-06-26T05:17:45;13.33;;;7.63;;
11699;SDS011;5906;51.660;6.674;2023-06-26T05:20:12;14.00;;;7.13;;
11699;SDS011;5906;51.660;6.674;2023-06-26T05:22:39;9.93;;;6.77;;
11699;SDS011;5906;51.660;6.674;2023-06-26T05:25:07;12.03;;;6.60;;
11699;SDS011;5906;51.660;6.674;2023-06-26T05:27:36;8.37;;;5.60;;
11699;SDS011;5906;51.660;6.674;2023-06-26T05:30:04;13.77;;;7.17;;
11699;SDS011;5906;51.660;6.674;2023-06-26T05:32:32;12.73;;;6.63;;
11699;SDS011;5906;51.660;6.674;2023-06-26T05:35:02;12.23;;;6.37;;
11699;SDS011;5906;51.660;6.674;2023-06-26T05:37:33;14.33;;;6.43;;
11699;SDS011;5906;51.660;6.674;2023-06-26T05:40:01;8.80;;;6.20;;
11699;SDS011;5906;51.660;6.674;2023-06-26T05:42:30;14.17;;;6.20;;
11699;SDS011;5906;51.660;6.674;2023-06-26T05:44:58;10.00;;;6.20;;
11699;SDS011;5906;51.660;6.674;2023-06-26T05:47:25;13.13;;;6.03;;
11699;SDS011;5906;51.660;6.674;2023-06-26T05:49:52;14.40;;;6.93;;
11699;SDS011;5906;51.660;6.674;2023-06-26T05:52:19;9.40;;;6.07;;
11699;SDS011;5906;51.660;6.674;2023-06-26T05:54:46;10.57;;;6.17;;
11699;SDS011;5906;51.660;6.674;2023-06-26T05:57:13;10.50;;;5.47;;
11699;SDS011;5906;51.660;6.674;2023-06-26T05:59:42;10.20;;;5.30;;
11699;SDS011;5906;51.660;6.674;2023-06-26T06:02:10;13.47;;;6.37;;
11699;SDS011;5906;51.660;6.674;2023-06-26T06:04:37;15.80;;;5.60;;
11699;SDS011;5906;51.660;6.674;2023-06-26T06:07:05;15.30;;;5.87;;
11699;SDS011;5906;51.660;6.674;2023-06-26T06:09:32;12.40;;;5.90;;
11699;SDS011;5906;51.660;6.674;2023-06-26T06:11:59;22.47;;;5.33;;
11699;SDS011;5906;51.660;6.674;2023-06-26T06:14:27;17.63;;;6.13;;
11699;SDS011;5906;51.660;6.674;2023-06-26T06:16:55;11.73;;;4.90;;
11699;SDS011;5906;51.660;6.674;2023-06-26T06:19:22;12.37;;;6.00;;
11699;SDS011;5906;51.660;6.674;2023-06-26T06:21:49;11.83;;;6.33;;
11699;SDS011;5906;51.660;6.674;2023-06-26T06:24:16;14.57;;;5.90;;
11699;SDS011;5906;51.660;6.674;2023-06-26T06:26:43;15.87;;;6.20;;
11699;SDS011;5906;51.660;6.674;2023-06-26T06:29:10;13.13;;;6.43;;
11699;SDS011;5906;51.660;6.674;2023-06-26T06:31:38;18.97;;;5.80;;
11699;SDS011;5906;51.660;6.674;2023-06-26T06:34:05;16.90;;;6.17;;
11699;SDS011;5906;51.660;6.674;2023-06-26T06:36:33;10.67;;;5.97;;
11699;SDS011;5906;51.660;6.674;2023-06-26T06:39:00;14.83;;;6.40;;
11699;SDS011;5906;51.660;6.674;2023-06-26T06:41:27;13.53;;;6.47;;
11699;SDS011;5906;51.660;6.674;2023-06-26T06:43:54;16.70;;;6.13;;
11699;SDS011;5906;51.660;6.674;2023-06-26T06:46:21;13.83;;;6.67;;
11699;SDS011;5906;51.660;6.674;2023-06-26T06:48:48;17.00;;;6.40;;
11699;SDS011;5906;51.660;6.674;2023-06-26T06:51:15;11.50;;;6.63;;
11699;SDS011;5906;51.660;6.674;2023-06-26T06:53:42;17.17;;;6.87;;
11699;SDS011;5906;51.660;6.674;2023-06-26T06:56:09;18.47;;;6.83;;
11699;SDS011;5906;51.660;6.674;2023-06-26T06:58:36;15.03;;;6.10;;
11699;SDS011;5906;51.660;6.674;2023-06-26T07:01:03;16.00;;;6.53;;
11699;SDS011;5906;51.660;6.674;2023-06-26T07:03:31;12.30;;;6.10;;
11699;SDS011;5906;51.660;6.674;2023-06-26T07:05:58;19.30;;;6.57;;
11699;SDS011;5906;51.660;6.674;2023-06-26T07:08:25;21.07;;;7.07;;
11699;SDS011;5906;51.660;6.674;2023-06-26T07:10:52;18.73;;;6.47;;
11699;SDS011;5906;51.660;6.674;2023-06-26T07:13:19;17.73;;;7.20;;
11699;SDS011;5906;51.660;6.674;2023-06-26T07:15:46;15.20;;;7.07;;
11699;SDS011;5906;51.660;6.674;2023-06-26T07:18:14;17.17;;;6.87;;
11699;SDS011;5906;51.660;6.674;2023-06-26T07:20:41;15.27;;;6.70;;
11699;SDS011;5906;51.660;6.674;2023-06-26T07:23:08;16.00;;;6.30;;
11699;SDS011;5906;51.660;6.674;2023-06-26T07:25:36;13.17;;;6.27;;
11699;SDS011;5906;51.660;6.674;2023-06-26T07:28:05;19.13;;;6.17;;
11699;SDS011;5906;51.660;6.674;2023-06-26T07:30:37;17.27;;;5.83;;
11699;SDS011;5906;51.660;6.674;2023-06-26T07:33:04;14.20;;;7.07;;
11699;SDS011;5906;51.660;6.674;2023-06-26T07:39:31;13.27;;;5.97;;
11699;SDS011;5906;51.660;6.674;2023-06-26T07:41:58;14.87;;;6.00;;
11699;SDS011;5906;51.660;6.674;2023-06-26T07:44:28;13.50;;;5.47;;
11699;SDS011;5906;51.660;6.674;2023-06-26T07:46:54;7.80;;;4.70;;
11699;SDS011;5906;51.660;6.674;2023-06-26T07:49:21;17.10;;;5.20;;
11699;SDS011;5906;51.660;6.674;2023-06-26T07:51:48;14.57;;;4.73;;
11699;SDS011;5906;51.660;6.674;2023-06-26T07:54:15;13.33;;;4.97;;
11699;SDS011;5906;51.660;6.674;2023-06-26T07:56:58;9.00;;;4.97;;
11699;SDS011;5906;51.660;6.674;2023-06-26T07:59:27;11.13;;;4.47;;
11699;SDS011;5906;51.660;6.674;2023-06-26T08:01:56;12.17;;;4.70;;
11699;SDS011;5906;51.660;6.674;2023-06-26T08:04:24;14.73;;;4.83;;
11699;SDS011;5906;51.660;6.674;2023-06-26T08:06:54;13.97;;;5.67;;
11699;SDS011;5906;51.660;6.674;2023-06-26T08:09:23;9.40;;;4.10;;
11699;SDS011;5906;51.660;6.674;2023-06-26T08:11:53;13.70;;;5.00;;
11699;SDS011;5906;51.660;6.674;2023-06-26T08:14:21;12.90;;;4.70;;
11699;SDS011;5906;51.660;6.674;2023-06-26T08:16:47;14.33;;;5.17;;
11699;SDS011;5906;51.660;6.674;2023-06-26T08:19:15;11.53;;;4.63;;
11699;SDS011;5906;51.660;6.674;2023-06-26T08:21:43;10.07;;;4.10;;
11699;SDS011;5906;51.660;6.674;2023-06-26T08:24:11;11.43;;;4.17;;
11699;SDS011;5906;51.660;6.674;2023-06-26T08:26:39;22.93;;;4.43;;
11699;SDS011;5906;51.660;6.674;2023-06-26T08:29:06;10.33;;;4.10;;
11699;SDS011;5906;51.660;6.674;2023-06-26T08:31:38;11.20;;;4.10;;
11699;SDS011;5906;51.660;6.674;2023-06-26T08:34:06;12.50;;;4.57;;
11699;SDS011;5906;51.660;6.674;2023-06-26T08:36:34;8.63;;;4.50;;
11699;SDS011;5906;51.660;6.674;2023-06-26T08:39:01;22.00;;;4.20;;
11699;SDS011;5906;51.660;6.674;2023-06-26T08:41:29;16.30;;;4.33;;
11699;SDS011;5906;51.660;6.674;2023-06-26T08:43:56;9.67;;;4.10;;
11699;SDS011;5906;51.660;6.674;2023-06-26T08:46:23;11.30;;;3.83;;
11699;SDS011;5906;51.660;6.674;2023-06-26T08:48:57;14.63;;;4.47;;
11699;SDS011;5906;51.660;6.674;2023-06-26T08:51:31;12.07;;;4.40;;
11699;SDS011;5906;51.660;6.674;2023-06-26T08:54:02;8.87;;;3.50;;
11699;SDS011;5906;51.660;6.674;2023-06-26T08:56:38;11.20;;;3.50;;
11699;SDS011;5906;51.660;6.674;2023-06-26T08:59:09;7.70;;;3.30;;
11699;SDS011;5906;51.660;6.674;2023-06-26T09:01:41;9.93;;;4.10;;
11699;SDS011;5906;51.660;6.674;2023-06-26T09:04:08;7.23;;;3.57;;
11699;SDS011;5906;51.660;6.674;2023-06-26T09:06:35;7.97;;;4.00;;
11699;SDS011;5906;51.660;6.674;2023-06-26T09:09:02;6.60;;;3.97;;
11699;SDS011;5906;51.660;6.674;2023-06-26T09:11:30;10.27;;;3.70;;
11699;SDS011;5906;51.660;6.674;2023-06-26T09:13:56;8.13;;;3.90;;
11699;SDS011;5906;51.660;6.674;2023-06-26T09:16:24;8.33;;;3.80;;
11699;SDS011;5906;51.660;6.674;2023-06-26T09:18:53;8.30;;;4.10;;
11699;SDS011;5906;51.660;6.674;2023-06-26T09:21:21;10.40;;;3.70;;
11699;SDS011;5906;51.660;6.674;2023-06-26T09:23:49;6.50;;;3.67;;
11699;SDS011;5906;51.660;6.674;2023-06-26T09:26:16;7.57;;;4.10;;
11699;SDS011;5906;51.660;6.674;2023-06-26T09:28:43;8.33;;;3.70;;
11699;SDS011;5906;51.660;6.674;2023-06-26T09:31:10;9.57;;;3.53;;
11699;SDS011;5906;51.660;6.674;2023-06-26T09:33:37;7.37;;;3.67;;
11699;SDS011;5906;51.660;6.674;2023-06-26T09:36:05;9.20;;;3.77;;
11699;SDS011;5906;51.660;6.674;2023-06-26T09:38:34;6.80;;;3.80;;
11699;SDS011;5906;51.660;6.674;2023-06-26T09:41:02;10.47;;;3.97;;
11699;SDS011;5906;51.660;6.674;2023-06-26T09:43:30;6.10;;;3.83;;
11699;SDS011;5906;51.660;6.674;2023-06-26T09:45:58;4.70;;;3.50;;
11699;SDS011;5906;51.660;6.674;2023-06-26T09:48:27;7.33;;;4.10;;
11699;SDS011;5906;51.660;6.674;2023-06-26T09:50:55;4.53;;;3.20;;
11699;SDS011;5906;51.660;6.674;2023-06-26T09:53:37;6.73;;;3.30;;
11699;SDS011;5906;51.660;6.674;2023-06-26T09:56:05;5.60;;;3.60;;
11699;SDS011;5906;51.660;6.674;2023-06-26T09:58:33;6.97;;;3.67;;
11699;SDS011;5906;51.660;6.674;2023-06-26T10:01:01;6.33;;;3.57;;
11699;SDS011;5906;51.660;6.674;2023-06-26T10:03:28;9.93;;;3.33;;
11699;SDS011;5906;51.660;6.674;2023-06-26T10:05:55;6.27;;;3.80;;
11699;SDS011;5906;51.660;6.674;2023-06-26T10:08:23;5.53;;;3.20;;
11699;SDS011;5906;51.660;6.674;2023-06-26T10:10:50;7.23;;;3.27;;
11699;SDS011;5906;51.660;6.674;2023-06-26T10:13:21;7.80;;;4.27;;
11699;SDS011;5906;51.660;6.674;2023-06-26T10:15:51;5.30;;;3.40;;
11699;SDS011;5906;51.660;6.674;2023-06-26T10:18:18;5.17;;;3.53;;
11699;SDS011;5906;51.660;6.674;2023-06-26T10:20:50;5.90;;;3.70;;
11699;SDS011;5906;51.660;6.674;2023-06-26T10:23:19;4.47;;;3.33;;
11699;SDS011;5906;51.660;6.674;2023-06-26T10:25:48;4.50;;;3.47;;
11699;SDS011;5906;51.660;6.674;2023-06-26T10:28:17;5.70;;;3.10;;
11699;SDS011;5906;51.660;6.674;2023-06-26T10:30:46;12.70;;;2.60;;
11699;SDS011;5906;51.660;6.674;2023-06-26T10:33:17;6.90;;;2.70;;
11699;SDS011;5906;51.660;6.674;2023-06-26T10:35:45;5.00;;;2.73;;
11699;SDS011;5906;51.660;6.674;2023-06-26T10:38:12;4.33;;;2.33;;
11699;SDS011;5906;51.660;6.674;2023-06-26T10:40:40;5.27;;;2.80;;
11699;SDS011;5906;51.660;6.674;2023-06-26T10:43:09;5.27;;;2.27;;
11699;SDS011;5906;51.660;6.674;2023-06-26T10:45:47;3.80;;;2.40;;
11699;SDS011;5906;51.660;6.674;2023-06-26T10:48:19;5.23;;;2.40;;
11699;SDS011;5906;51.660;6.674;2023-06-26T10:50:47;4.50;;;2.40;;
11699;SDS011;5906;51.660;6.674;2023-06-26T10:53:15;4.13;;;2.30;;
11699;SDS011;5906;51.660;6.674;2023-06-26T10:55:58;7.97;;;2.83;;
11699;SDS011;5906;51.660;6.674;2023-06-26T10:58:31;7.47;;;2.37;;
11699;SDS011;5906;51.660;6.674;2023-06-26T11:03:38;4.77;;;2.30;;
11699;SDS011;5906;51.660;6.674;2023-06-26T11:06:10;2.57;;;1.90;;
11699;SDS011;5906;51.660;6.674;2023-06-26T11:08:44;3.13;;;2.10;;
11699;SDS011;5906;51.660;6.674;2023-06-26T11:11:15;6.07;;;1.80;;
11699;SDS011;5906;51.660;6.674;2023-06-26T11:13:44;4.63;;;2.07;;
11699;SDS011;5906;51.660;6.674;2023-06-26T11:16:12;2.83;;;1.70;;
11699;SDS011;5906;51.660;6.674;2023-06-26T11:18:41;3.47;;;2.07;;
11699;SDS011;5906;51.660;6.674;2023-06-26T11:21:09;6.93;;;1.90;;
11699;SDS011;5906;51.660;6.674;2023-06-26T11:23:38;3.50;;;2.10;;
11699;SDS011;5906;51.660;6.674;2023-06-26T11:26:16;4.13;;;1.60;;
11699;SDS011;5906;51.660;6.674;2023-06-26T11:28:51;4.90;;;1.67;;
11699;SDS011;5906;51.660;6.674;2023-06-26T11:31:30;11.80;;;2.03;;
11699;SDS011;5906;51.660;6.674;2023-06-26T11:34:00;2.43;;;1.60;;
11699;SDS011;5906;51.660;6.674;2023-06-26T11:36:30;3.43;;;1.60;;
11699;SDS011;5906;51.660;6.674;2023-06-26T11:41:26;4.00;;;1.90;;
11699;SDS011;5906;51.660;6.674;2023-06-26T11:43:55;3.43;;;1.93;;
11699;SDS011;5906;51.660;6.674;2023-06-26T11:46:30;4.63;;;1.40;;
11699;SDS011;5906;51.660;6.674;2023-06-26T11:48:58;2.03;;;1.60;;
11699;SDS011;5906;51.660;6.674;2023-06-26T11:51:28;3.57;;;1.93;;
11699;SDS011;5906;51.660;6.674;2023-06-26T11:53:55;3.60;;;2.10;;
11699;SDS011;5906;51.660;6.674;2023-06-26T11:56:22;2.83;;;1.60;;
11699;SDS011;5906;51.660;6.674;2023-06-26T12:04:05;5.90;;;1.90;;
11699;SDS011;5906;51.660;6.674;2023-06-26T12:06:35;7.80;;;1.90;;
11699;SDS011;5906;51.660;6.674;2023-06-26T12:09:07;3.73;;;1.70;;
11699;SDS011;5906;51.660;6.674;2023-06-26T12:11:41;2.37;;;1.50;;
11699;SDS011;5906;51.660;6.674;2023-06-26T12:15:15;2.33;;;1.30;;
11699;SDS011;5906;51.660;6.674;2023-06-26T12:17:43;7.90;;;1.60;;
11699;SDS011;5906;51.660;6.674;2023-06-26T12:20:17;6.13;;;1.60;;
11699;SDS011;5906;51.660;6.674;2023-06-26T12:22:48;2.43;;;1.57;;
11699;SDS011;5906;51.660;6.674;2023-06-26T12:25:23;2.60;;;1.53;;
11699;SDS011;5906;51.660;6.674;2023-06-26T12:27:50;2.63;;;1.50;;
11699;SDS011;5906;51.660;6.674;2023-06-26T12:30:17;4.17;;;1.60;;
11699;SDS011;5906;51.660;6.674;2023-06-26T12:32:45;3.43;;;1.73;;
11699;SDS011;5906;51.660;6.674;2023-06-26T12:35:13;5.00;;;1.30;;
11699;SDS011;5906;51.660;6.674;2023-06-26T12:37:42;2.50;;;1.43;;
11699;SDS011;5906;51.660;6.674;2023-06-26T12:43:59;3.33;;;1.50;;
11699;SDS011;5906;51.660;6.674;2023-06-26T12:46:33;3.83;;;1.50;;
11699;SDS011;5906;51.660;6.674;2023-06-26T12:49:01;5.30;;;1.73;;
11699;SDS011;5906;51.660;6.674;2023-06-26T12:51:35;8.80;;;1.57;;
11699;SDS011;5906;51.660;6.674;2023-06-26T12:54:02;6.50;;;1.73;;
11699;SDS011;5906;51.660;6.674;2023-06-26T12:56:29;1.60;;;1.30;;
11699;SDS011;5906;51.660;6.674;2023-06-26T12:58:56;2.67;;;1.50;;
11699;SDS011;5906;51.660;6.674;2023-06-26T13:01:23;3.57;;;1.53;;
11699;SDS011;5906;51.660;6.674;2023-06-26T13:03:50;1.73;;;1.63;;
11699;SDS011;5906;51.660;6.674;2023-06-26T13:06:18;2.27;;;1.40;;
11699;SDS011;5906;51.660;6.674;2023-06-26T13:08:45;3.07;;;1.50;;
11699;SDS011;5906;51.660;6.674;2023-06-26T13:11:13;2.47;;;1.50;;
11699;SDS011;5906;51.660;6.674;2023-06-26T13:13:43;1.83;;;1.40;;
11699;SDS011;5906;51.660;6.674;2023-06-26T13:16:16;4.57;;;1.97;;
11699;SDS011;5906;51.660;6.674;2023-06-26T13:18:44;4.80;;;1.63;;
11699;SDS011;5906;51.660;6.674;2023-06-26T13:21:12;4.27;;;2.00;;
11699;SDS011;5906;51.660;6.674;2023-06-26T13:23:39;2.47;;;1.70;;
11699;SDS011;5906;51.660;6.674;2023-06-26T13:26:07;5.43;;;1.40;;
11699;SDS011;5906;51.660;6.674;2023-06-26T13:28:34;2.40;;;1.60;;
11699;SDS011;5906;51.660;6.674;2023-06-26T13:31:02;5.20;;;1.80;;
11699;SDS011;5906;51.660;6.674;2023-06-26T13:33:29;6.87;;;2.00;;
11699;SDS011;5906;51.660;6.674;2023-06-26T13:35:57;3.90;;;2.10;;
11699;SDS011;5906;51.660;6.674;2023-06-26T13:38:24;5.00;;;2.00;;
11699;SDS011;5906;51.660;6.674;2023-06-26T13:40:52;3.50;;;1.90;;
11699;SDS011;5906;51.660;6.674;2023-06-26T13:43:21;5.53;;;2.27;;
11699;SDS011;5906;51.660;6.674;2023-06-26T13:45:49;5.37;;;2.30;;
11699;SDS011;5906;51.660;6.674;2023-06-26T13:48:16;5.73;;;1.97;;
11699;SDS011;5906;51.660;6.674;2023-06-26T13:50:44;6.53;;;2.00;;
11699;SDS011;5906;51.660;6.674;2023-06-26T13:53:51;4.37;;;2.00;;
11699;SDS011;5906;51.660;6.674;2023-06-26T13:56:18;7.00;;;2.40;;
11699;SDS011;5906;51.660;6.674;2023-06-26T13:58:45;5.00;;;2.00;;
11699;SDS011;5906;51.660;6.674;2023-06-26T14:01:12;4.60;;;2.20;;
11699;SDS011;5906;51.660;6.674;2023-06-26T14:03:40;4.57;;;2.47;;
11699;SDS011;5906;51.660;6.674;2023-06-26T14:06:07;3.00;;;2.10;;
11699;SDS011;5906;51.660;6.674;2023-06-26T14:08:34;6.00;;;2.07;;
11699;SDS011;5906;51.660;6.674;2023-06-26T14:11:01;5.40;;;2.20;;
11699;SDS011;5906;51.660;6.674;2023-06-26T14:13:28;2.40;;;1.87;;
11699;SDS011;5906;51.660;6.674;2023-06-26T14:15:55;11.57;;;2.87;;
11699;SDS011;5906;51.660;6.674;2023-06-26T14:18:22;6.70;;;2.23;;
11699;SDS011;5906;51.660;6.674;2023-06-26T14:20:50;5.50;;;1.70;;
11699;SDS011;5906;51.660;6.674;2023-06-26T14:23:18;3.10;;;2.10;;
11699;SDS011;5906;51.660;6.674;2023-06-26T14:25:45;4.00;;;2.20;;
11699;SDS011;5906;51.660;6.674;2023-06-26T14:28:15;7.20;;;2.50;;
11699;SDS011;5906;51.660;6.674;2023-06-26T14:30:42;8.37;;;2.10;;
11699;SDS011;5906;51.660;6.674;2023-06-26T14:33:09;5.40;;;1.90;;
11699;SDS011;5906;51.660;6.674;2023-06-26T14:35:36;5.50;;;2.10;;
11699;SDS011;5906;51.660;6.674;2023-06-26T14:38:03;3.97;;;1.80;;
11699;SDS011;5906;51.660;6.674;2023-06-26T14:40:30;2.63;;;1.73;;
11699;SDS011;5906;51.660;6.674;2023-06-26T14:42:58;3.70;;;1.60;;
11699;SDS011;5906;51.660;6.674;2023-06-26T14:45:26;4.50;;;1.73;;
11699;SDS011;5906;51.660;6.674;2023-06-26T14:47:53;6.80;;;1.60;;
11699;SDS011;5906;51.660;6.674;2023-06-26T14:50:20;4.77;;;1.70;;
11699;SDS011;5906;51.660;6.674;2023-06-26T14:52:47;6.20;;;1.50;;
11699;SDS011;5906;51.660;6.674;2023-06-26T14:55:14;14.27;;;1.87;;
11699;SDS011;5906;51.660;6.674;2023-06-26T14:57:41;4.43;;;1.97;;
11699;SDS011;5906;51.660;6.674;2023-06-26T15:00:08;2.50;;;1.77;;
11699;SDS011;5906;51.660;6.674;2023-06-26T15:02:36;4.70;;;2.10;;
11699;SDS011;5906;51.660;6.674;2023-06-26T15:05:03;3.40;;;1.90;;
11699;SDS011;5906;51.660;6.674;2023-06-26T15:07:30;1.93;;;1.70;;
11699;SDS011;5906;51.660;6.674;2023-06-26T15:09:57;7.67;;;2.00;;
11699;SDS011;5906;51.660;6.674;2023-06-26T15:12:25;4.60;;;1.60;;
11699;SDS011;5906;51.660;6.674;2023-06-26T15:14:53;3.10;;;1.90;;
11699;SDS011;5906;51.660;6.674;2023-06-26T15:17:20;3.93;;;1.47;;
11699;SDS011;5906;51.660;6.674;2023-06-26T15:19:48;6.60;;;1.60;;
11699;SDS011;5906;51.660;6.674;2023-06-26T15:22:18;1.70;;;1.53;;
11699;SDS011;5906;51.660;6.674;2023-06-26T15:24:48;6.50;;;1.60;;